Time;durP1;ratioP1;P1;durP2;ratioP2;P2;SDS_P1;SDS_P2;PMS_P1;PMS_P2;Temp;Humidity;BMP_temperature;BMP_pressure;BME280_temperature;BME280_humidity;BME280_pressure;Samples;Min_cycle;Max_cycle;Signal;HPM_P1;HPM_P2
2022/09/13 00:01:10;253988.00;0.85;438.81;0.00;0.00;0.62;;;;;19.20;1.00;;;;;;2280672;61;1315;-85
2022/09/13 00:03:37;120996.00;0.40;209.80;0.00;0.00;0.62;;;;;18.70;1.00;;;;;;2280769;61;1123;-86
2022/09/13 00:06:09;193984.00;0.65;335.57;0.00;0.00;0.62;;;;;18.70;1.00;;;;;;2280693;61;1072;-87
2022/09/13 00:08:35;111042.00;0.37;192.63;0.00;0.00;0.62;;;;;18.60;1.00;;;;;;2280668;61;994;-86
2022/09/13 00:11:03;218998.00;0.73;378.62;0.00;0.00;0.62;;;;;18.30;1.00;;;;;;2280583;61;2016;-84
2022/09/13 00:13:29;82914.00;0.28;144.07;0.00;0.00;0.62;;;;;18.00;1.00;;;;;;2280498;61;1414;-85
2022/09/13 00:16:00;383543.00;1.28;661.52;86716.00;0.29;150.64;;;;;18.00;1.00;;;;;;2280617;61;1152;-85
2022/09/13 00:18:27;99214.00;0.33;172.22;0.00;0.00;0.62;;;;;18.10;1.00;;;;;;2280547;61;1124;-86
2022/09/13 00:21:04;175346.00;0.58;303.47;0.00;0.00;0.62;;;;;17.90;1.00;;;;;;2280448;61;1385;-85
2022/09/13 00:23:31;554207.00;1.85;955.21;187319.00;0.62;324.09;;;;;18.20;1.00;;;;;;2280688;61;1069;-85
2022/09/13 00:26:04;259634.00;0.87;448.52;70927.00;0.24;123.36;;;;;18.70;1.00;;;;;;2280695;61;1074;-85
2022/09/13 00:28:31;312846.00;1.04;540.00;69916.00;0.23;121.62;;;;;19.10;1.00;;;;;;2280275;61;1164;-84
2022/09/13 00:31:01;214512.00;0.72;370.90;71665.00;0.24;124.64;;;;;19.30;1.00;;;;;;2280438;61;2006;-86
2022/09/13 00:33:28;527229.00;1.76;908.72;116374.00;0.39;201.83;;;;;19.10;1.00;;;;;;2280495;61;1123;-86
2022/09/13 00:35:55;338054.00;1.13;583.33;63351.00;0.21;110.27;;;;;19.10;1.00;;;;;;2280640;61;1102;-86
2022/09/13 00:38:21;250542.00;0.84;432.88;66436.00;0.22;115.60;;;;;19.20;1.00;;;;;;2280465;61;972;-86
2022/09/13 00:40:48;386079.00;1.29;665.87;77316.00;0.26;134.40;;;;;19.20;1.00;;;;;;2280411;61;1367;-87
2022/09/13 00:43:18;474745.00;1.58;818.35;71293.00;0.24;123.99;;;;;19.40;1.00;;;;;;2280447;61;1047;-85
2022/09/13 00:45:46;323052.00;1.08;557.54;66733.00;0.22;116.11;;;;;19.40;1.00;;;;;;2280384;61;1548;-87
2022/09/13 00:48:21;354053.00;1.18;610.83;58716.00;0.20;102.26;;;;;19.70;1.00;;;;;;2280505;61;1155;-86
2022/09/13 00:50:53;314425.00;1.05;542.72;65123.00;0.22;113.33;;;;;19.90;1.00;;;;;;2280449;61;1925;-86
2022/09/13 00:53:25;341444.00;1.14;589.16;64325.00;0.21;111.95;;;;;20.20;1.00;;;;;;2280666;61;1077;-83
2022/09/13 00:55:58;477030.00;1.59;822.29;73250.00;0.24;127.38;;;;;20.20;1.00;;;;;;2280501;61;1092;-86
2022/09/13 00:58:30;349754.00;1.17;603.44;67857.00;0.23;118.06;;;;;20.20;1.00;;;;;;2280286;61;1088;-85
2022/09/13 01:01:00;320069.00;1.07;552.42;72841.00;0.24;126.67;;;;;20.40;1.00;;;;;;2280438;61;1370;-85
2022/09/13 01:03:33;208426.00;0.69;360.43;65825.00;0.22;114.55;;;;;20.20;1.00;;;;;;2280385;61;1135;-86
2022/09/13 01:06:05;206999.00;0.69;357.97;61411.00;0.20;106.92;;;;;20.20;1.00;;;;;;2280472;61;1121;-85
2022/09/13 01:08:34;615289.00;2.05;1060.63;75394.00;0.25;131.08;;;;;20.30;1.00;;;;;;2280715;61;1088;-84
2022/09/13 01:11:06;364100.00;1.21;628.10;66261.00;0.22;115.30;;;;;20.50;1.00;;;;;;2280549;61;1998;-83
2022/09/13 01:13:35;281752.00;0.94;486.55;73286.00;0.24;127.44;;;;;20.30;1.00;;;;;;2280695;61;1124;-82
2022/09/13 01:16:02;215112.00;0.72;371.93;65031.00;0.22;113.17;;;;;20.30;1.00;;;;;;2280587;61;1367;-85
2022/09/13 01:18:30;302263.00;1.01;521.81;68955.00;0.23;119.95;;;;;20.30;1.00;;;;;;2280416;61;1122;-86
2022/09/13 01:21:54;574377.00;1.91;990.00;63640.00;0.21;110.77;;;;;20.30;1.00;;;;;;2280426;61;1268;-86
2022/09/13 01:24:49;123012.00;0.41;213.28;0.00;0.00;0.62;;;;;20.30;1.00;;;;;;2267889;61;1059;-84
2022/09/13 01:27:38;105609.00;0.35;183.25;0.00;0.00;0.62;;;;;20.40;1.00;;;;;;2267748;61;2219;-86
2022/09/13 01:30:16;259782.00;0.87;448.77;0.00;0.00;0.62;;;;;20.60;1.00;;;;;;2279804;61;1350;-85
2022/09/13 01:33:16;266928.00;0.89;461.06;74160.00;0.25;128.95;;;;;20.50;1.00;;;;;;2280327;61;2022;-87
2022/09/13 01:35:59;141474.00;0.47;245.11;0.00;0.00;0.62;;;;;20.50;1.00;;;;;;2280407;61;1104;-85
2022/09/13 01:38:44;172692.00;0.58;298.90;0.00;0.00;0.62;;;;;20.40;1.00;;;;;;2280300;61;1080;-86
2022/09/13 01:41:31;407473.00;1.36;702.65;0.00;0.00;0.62;;;;;20.50;1.00;;;;;;2280303;61;1473;-86
2022/09/13 01:44:11;212180.00;0.71;366.89;0.00;0.00;0.62;;;;;19.90;1.00;;;;;;2280435;61;1045;-85
2022/09/13 01:46:49;205019.00;0.68;354.56;0.00;0.00;0.62;;;;;19.20;1.00;;;;;;2280419;61;1179;-86
2022/09/13 01:49:25;287779.00;0.96;496.91;0.00;0.00;0.62;;;;;19.00;1.00;;;;;;2280482;61;1084;-85
2022/09/13 01:51:59;74424.00;0.25;129.40;0.00;0.00;0.62;;;;;18.90;1.00;;;;;;2280258;61;1919;-85
2022/09/13 01:54:36;309945.00;1.03;535.01;0.00;0.00;0.62;;;;;19.30;1.00;;;;;;2280315;61;1761;-86
2022/09/13 01:57:13;519123.00;1.73;894.75;0.00;0.00;0.62;;;;;19.50;1.00;;;;;;2280487;61;1133;-85
2022/09/13 01:59:49;267881.00;0.89;462.70;0.00;0.00;0.62;;;;;19.50;1.00;;;;;;2280540;61;1096;-85
2022/09/13 02:02:23;94566.00;0.32;164.19;0.00;0.00;0.62;;;;;19.30;1.00;;;;;;2280504;61;1044;-85
2022/09/13 02:04:55;248648.00;0.83;429.63;0.00;0.00;0.62;;;;;19.40;1.00;;;;;;2280502;61;1052;-83
2022/09/13 02:07:29;323640.00;1.08;558.55;0.00;0.00;0.62;;;;;19.50;1.00;;;;;;2280390;61;1120;-85
2022/09/13 02:10:02;427531.00;1.43;737.14;0.00;0.00;0.62;;;;;19.60;1.00;;;;;;2280241;61;1338;-84
2022/09/13 02:12:34;173056.00;0.58;299.53;0.00;0.00;0.62;;;;;19.90;1.00;;;;;;2280330;61;1913;-85
2022/09/13 02:15:08;34505.00;0.12;60.38;0.00;0.00;0.62;;;;;19.90;1.00;;;;;;2280365;61;1056;-85
2022/09/13 02:17:39;165617.00;0.55;286.72;0.00;0.00;0.62;;;;;19.90;1.00;;;;;;2280298;61;1183;-85
2022/09/13 02:20:13;143647.00;0.48;248.86;0.00;0.00;0.62;;;;;20.00;1.00;;;;;;2280231;61;2008;-85
2022/09/13 02:22:45;6300.00;0.02;11.54;0.00;0.00;0.62;;;;;19.90;1.00;;;;;;2280176;61;990;-85
2022/09/13 02:25:17;88130.00;0.29;153.08;0.00;0.00;0.62;;;;;19.80;1.00;;;;;;2280341;61;1129;-85
2022/09/13 02:27:47;113927.00;0.38;197.61;0.00;0.00;0.62;;;;;19.70;1.00;;;;;;2280340;61;1108;-85
2022/09/13 02:30:15;137827.00;0.46;238.82;15029.00;0.05;26.66;;;;;19.50;1.00;;;;;;2280211;61;1277;-85
2022/09/13 02:32:49;15422.00;0.05;27.34;0.00;0.00;0.62;;;;;19.30;1.00;;;;;;2280365;61;2008;-85
2022/09/13 02:35:21;119376.00;0.40;207.01;0.00;0.00;0.62;;;;;19.20;1.00;;;;;;2280212;61;1974;-86
2022/09/13 02:37:57;50288.00;0.17;87.68;0.00;0.00;0.62;;;;;19.00;1.00;;;;;;2280263;61;1088;-86
2022/09/13 02:40:30;32895.00;0.11;57.59;0.00;0.00;0.62;;;;;19.10;1.00;;;;;;2280215;61;1355;-86
2022/09/13 02:43:02;65346.00;0.22;113.72;0.00;0.00;0.62;;;;;18.80;1.00;;;;;;2280371;61;1123;-84
2022/09/13 02:45:36;27015.00;0.09;47.42;0.00;0.00;0.62;;;;;18.70;1.00;;;;;;2280354;61;1117;-85
2022/09/13 02:48:12;262284.00;0.87;453.08;49002.00;0.16;85.46;;;;;18.70;1.00;;;;;;2280384;61;1087;-85
2022/09/13 02:50:55;129257.00;0.43;224.05;0.00;0.00;0.62;;;;;18.80;1.00;;;;;;2280093;61;1718;-85
2022/09/13 02:53:29;115108.00;0.38;199.64;0.00;0.00;0.62;;;;;18.50;1.00;;;;;;2280155;61;1044;-84
2022/09/13 02:56:08;92946.00;0.31;161.39;0.00;0.00;0.62;;;;;18.00;1.00;;;;;;2280342;61;1022;-85
2022/09/13 02:58:44;108853.00;0.36;188.85;0.00;0.00;0.62;;;;;18.00;1.00;;;;;;2280189;61;1642;-83
2022/09/13 03:01:11;64125.00;0.21;111.61;0.00;0.00;0.62;;;;;18.30;1.00;;;;;;2280220;61;1384;-84
2022/09/13 03:03:39;142171.00;0.47;246.31;0.00;0.00;0.62;;;;;18.40;1.00;;;;;;2280156;61;1056;-85
2022/09/13 03:06:07;283183.00;0.94;489.01;68804.00;0.23;119.69;;;;;18.60;1.00;;;;;;2280132;61;1042;-84
2022/09/13 03:08:36;58051.00;0.19;101.11;0.00;0.00;0.62;;;;;18.60;1.00;;;;;;2280310;61;1025;-85
2022/09/13 03:11:17;146224.00;0.49;253.30;625.00;0.00;1.70;;;;;18.80;1.00;;;;;;2280183;61;2000;-84
2022/09/13 03:14:01;102052.00;0.34;177.11;0.00;0.00;0.62;;;;;18.80;1.00;;;;;;2280222;61;1230;-86
2022/09/13 03:16:40;257016.00;0.86;444.02;18635.00;0.06;32.91;;;;;18.70;1.00;;;;;;2280178;61;985;-83
2022/09/13 03:19:24;82876.00;0.28;144.00;0.00;0.00;0.62;;;;;18.80;1.00;;;;;;2280173;61;1124;-85
2022/09/13 03:22:07;126956.00;0.42;220.08;0.00;0.00;0.62;;;;;18.50;1.00;;;;;;2280183;61;1375;-85
2022/09/13 03:24:47;152420.00;0.51;263.98;0.00;0.00;0.62;;;;;17.80;1.00;;;;;;2280170;61;976;-83
2022/09/13 03:27:27;69083.00;0.23;120.18;0.00;0.00;0.62;;;;;17.30;1.00;;;;;;2280262;61;1125;-83
2022/09/13 03:29:58;40274.00;0.13;70.36;0.00;0.00;0.62;;;;;17.60;1.00;;;;;;2279940;61;1261;-83
2022/09/13 03:32:36;37515.00;0.13;65.59;0.00;0.00;0.62;;;;;18.10;1.00;;;;;;2280161;61;1986;-85
2022/09/13 03:35:17;15833.00;0.05;28.05;0.00;0.00;0.62;;;;;18.50;1.00;;;;;;2280208;61;1175;-83
2022/09/13 03:37:52;59921.00;0.20;104.34;0.00;0.00;0.62;;;;;18.30;1.00;;;;;;2279968;61;1048;-83
2022/09/13 03:40:28;115943.00;0.39;201.08;0.00;0.00;0.62;;;;;18.50;1.00;;;;;;2280116;61;1363;-85
2022/09/13 03:43:04;50376.00;0.17;87.84;0.00;0.00;0.62;;;;;18.90;1.00;;;;;;2280176;61;951;-85
2022/09/13 03:45:36;141791.00;0.47;245.66;0.00;0.00;0.62;;;;;19.30;1.00;;;;;;2280069;61;1102;-85
2022/09/13 03:48:06;532481.00;1.77;917.77;133512.00;0.45;231.39;;;;;19.40;1.00;;;;;;2280145;61;1187;-86
2022/09/13 03:50:36;245525.00;0.82;424.25;0.00;0.00;0.62;;;;;19.40;1.00;;;;;;2280098;61;1286;-84
2022/09/13 03:53:08;0.00;0.00;0.62;0.00;0.00;0.62;;;;;19.50;1.00;;;;;;2280106;61;2010;-85
2022/09/13 03:55:40;274409.00;0.91;473.92;99003.00;0.33;171.85;;;;;19.50;1.00;;;;;;2280111;61;1121;-86
2022/09/13 03:58:07;14008.00;0.05;24.89;0.00;0.00;0.62;;;;;19.20;1.00;;;;;;2280067;61;1252;-85
2022/09/13 04:00:34;201648.00;0.67;348.76;0.00;0.00;0.62;;;;;19.30;1.00;;;;;;2280049;61;1321;-84
2022/09/13 04:03:00;50047.00;0.17;87.27;0.00;0.00;0.62;;;;;19.30;1.00;;;;;;2280161;61;1079;-84
2022/09/13 04:05:27;142639.00;0.48;247.12;0.00;0.00;0.62;;;;;19.30;1.00;;;;;;2280810;61;1027;-84
2022/09/13 04:07:55;58470.00;0.19;101.83;0.00;0.00;0.62;;;;;19.40;1.00;;;;;;2280788;61;1136;-84
2022/09/13 04:10:23;24475.00;0.08;43.02;0.00;0.00;0.62;;;;;18.90;1.00;;;;;;2280790;61;1373;-84
2022/09/13 04:12:50;98608.00;0.33;171.17;0.00;0.00;0.62;;;;;18.90;1.00;;;;;;2280827;61;1911;-86
2022/09/13 04:15:17;42003.00;0.14;73.35;0.00;0.00;0.62;;;;;18.90;1.00;;;;;;2280679;61;1300;-85
2022/09/13 04:17:44;29449.00;0.10;51.63;0.00;0.00;0.62;;;;;18.80;1.00;;;;;;2280761;61;1148;-86
2022/09/13 04:20:11;133757.00;0.45;231.81;0.00;0.00;0.62;;;;;19.00;1.00;;;;;;2280760;61;1390;-86
2022/09/13 04:22:38;182721.00;0.61;316.18;0.00;0.00;0.62;;;;;19.20;1.00;;;;;;2280754;61;1117;-86
2022/09/13 04:25:07;10905.00;0.04;19.52;0.00;0.00;0.62;;;;;18.90;1.00;;;;;;2280758;61;1043;-84
2022/09/13 04:27:34;115661.00;0.39;200.60;31825.00;0.11;55.74;;;;;19.10;1.00;;;;;;2280801;61;1158;-84
2022/09/13 04:30:01;37093.00;0.12;64.86;0.00;0.00;0.62;;;;;18.60;1.00;;;;;;2280590;61;1335;-85
2022/09/13 04:32:28;63336.00;0.21;110.24;0.00;0.00;0.62;;;;;18.50;1.00;;;;;;2280682;61;1919;-85
2022/09/13 04:34:55;142219.00;0.47;246.40;0.00;0.00;0.62;;;;;18.60;1.00;;;;;;2280580;61;1052;-86
2022/09/13 04:37:22;206920.00;0.69;357.83;0.00;0.00;0.62;;;;;18.90;1.00;;;;;;2280610;61;1156;-86
2022/09/13 04:39:49;154910.00;0.52;268.27;0.00;0.00;0.62;;;;;19.10;1.00;;;;;;2280685;61;1415;-85
2022/09/13 04:42:18;148892.00;0.50;257.90;12287.00;0.04;21.91;;;;;19.00;1.00;;;;;;2280664;61;1117;-85
2022/09/13 04:44:45;30553.00;0.10;53.54;0.00;0.00;0.62;;;;;18.80;1.00;;;;;;2280710;61;1047;-84
2022/09/13 04:47:12;308853.00;1.03;533.14;20816.00;0.07;36.68;;;;;18.10;1.00;;;;;;2280740;61;1026;-84
2022/09/13 04:49:39;23512.00;0.08;41.35;0.00;0.00;0.62;;;;;18.10;1.00;;;;;;2280637;61;985;-86
2022/09/13 04:52:06;192125.00;0.64;332.37;0.00;0.00;0.62;;;;;18.40;1.00;;;;;;2280631;61;1923;-85
2022/09/13 04:54:32;146321.00;0.49;253.47;0.00;0.00;0.62;;;;;18.60;1.00;;;;;;2280666;61;1106;-86
2022/09/13 04:56:59;226715.00;0.76;391.90;23428.00;0.08;41.21;;;;;18.00;1.00;;;;;;2280605;61;1288;-86
2022/09/13 04:59:27;62839.00;0.21;109.38;0.00;0.00;0.62;;;;;17.20;1.00;;;;;;2280576;61;1061;-84
2022/09/13 05:01:54;130280.00;0.43;225.81;0.00;0.00;0.62;;;;;17.10;1.00;;;;;;2280628;61;1420;-85
2022/09/13 05:04:21;52373.00;0.17;91.29;0.00;0.00;0.62;;;;;17.50;1.00;;;;;;2280697;61;1035;-85
2022/09/13 05:06:48;120172.00;0.40;208.38;0.00;0.00;0.62;;;;;17.80;1.00;;;;;;2280538;61;1155;-85
2022/09/13 05:09:15;117477.00;0.39;203.73;0.00;0.00;0.62;;;;;17.60;1.00;;;;;;2280445;61;1152;-88
2022/09/13 05:11:43;223194.00;0.74;385.84;0.00;0.00;0.62;;;;;17.40;1.00;;;;;;2280275;61;2006;-86
2022/09/13 05:14:11;40173.00;0.13;70.19;0.00;0.00;0.62;;;;;17.60;1.00;;;;;;2280571;61;1159;-86
2022/09/13 05:16:39;85487.00;0.28;148.51;0.00;0.00;0.62;;;;;17.30;1.00;;;;;;2280369;61;970;-86
2022/09/13 05:19:06;113935.00;0.38;197.62;0.00;0.00;0.62;;;;;17.00;1.00;;;;;;2280600;61;1131;-85
2022/09/13 05:21:33;339743.00;1.13;586.23;126564.00;0.42;219.40;;;;;17.10;1.00;;;;;;2280488;61;1370;-85
2022/09/13 05:24:00;144894.00;0.48;251.01;0.00;0.00;0.62;;;;;17.60;1.00;;;;;;2280619;61;1095;-85
2022/09/13 05:26:30;78276.00;0.26;136.06;0.00;0.00;0.62;;;;;17.80;1.00;;;;;;2280427;61;1058;-84
2022/09/13 05:28:57;59610.00;0.20;103.80;0.00;0.00;0.62;;;;;18.00;1.00;;;;;;2280376;61;1128;-84
2022/09/13 05:31:26;82772.00;0.28;143.83;0.00;0.00;0.62;;;;;18.10;1.00;;;;;;2280363;61;1374;-85
2022/09/13 05:33:58;51954.00;0.17;90.57;0.00;0.00;0.62;;;;;18.70;1.00;;;;;;2280474;61;2006;-85
2022/09/13 05:36:25;31875.00;0.11;55.83;0.00;0.00;0.62;;;;;19.80;1.00;;;;;;2280511;61;1066;-85
2022/09/13 05:38:53;11316.00;0.04;20.23;0.00;0.00;0.62;;;;;20.90;1.00;;;;;;2280483;61;1088;-86
2022/09/13 05:41:20;39363.00;0.13;68.79;0.00;0.00;0.62;;;;;22.00;1.00;;;;;;2280510;61;1401;-86
2022/09/13 05:43:47;145086.00;0.48;251.34;0.00;0.00;0.62;;;;;22.70;1.00;;;;;;2280397;61;1111;-84
2022/09/13 05:46:16;509089.00;1.70;877.47;29024.00;0.10;50.89;;;;;23.10;1.00;;;;;;2280398;61;1214;-85
2022/09/13 05:48:44;285986.00;0.95;493.83;49816.00;0.17;86.87;;;;;23.30;1.00;;;;;;2280230;61;1147;-85
2022/09/13 05:51:14;175828.00;0.59;304.30;0.00;0.00;0.62;;;;;22.80;1.00;;;;;;2280263;61;1382;-86
2022/09/13 05:53:43;438101.00;1.46;755.32;58573.00;0.20;102.01;;;;;22.50;1.00;;;;;;2280474;61;1999;-85
2022/09/13 05:56:12;525978.00;1.75;906.56;10394.00;0.03;18.63;;;;;21.70;1.00;;;;;;2280097;61;1694;-85
2022/09/13 05:58:40;841566.00;2.81;1453.71;34384.00;0.11;60.17;;;;;21.20;1.00;;;;;;2280364;61;1065;-86
2022/09/13 06:01:07;565525.00;1.89;974.73;57323.00;0.19;99.85;;;;;21.30;1.00;;;;;;2280244;61;1434;-86
2022/09/13 06:03:35;612275.00;2.04;1055.42;35131.00;0.12;61.46;;;;;21.80;1.00;;;;;;2280375;61;1048;-86
2022/09/13 06:06:02;404496.00;1.35;697.53;0.00;0.00;0.62;;;;;22.00;1.00;;;;;;2280243;61;1527;-86
2022/09/13 06:08:32;1065712.00;3.55;1849.21;0.00;0.00;0.62;;;;;22.30;1.00;;;;;;2280402;61;1150;-86
2022/09/13 06:11:01;548934.00;1.83;946.12;34813.00;0.12;60.91;;;;;22.90;1.00;;;;;;2280354;61;1991;-85
2022/09/13 06:13:29;730468.00;2.43;1260.11;3903.00;0.01;7.38;;;;;23.40;1.00;;;;;;2280356;61;2279;-85
2022/09/13 06:15:59;503554.00;1.68;867.94;0.00;0.00;0.62;;;;;23.90;1.00;;;;;;2280406;61;1062;-85
2022/09/13 06:18:27;131017.00;0.44;227.08;0.00;0.00;0.62;;;;;24.00;1.00;;;;;;2280424;61;1140;-85
2022/09/13 06:20:59;448108.00;1.49;772.53;112877.00;0.38;195.79;;;;;24.20;1.00;;;;;;2280401;61;1382;-85
2022/09/13 06:23:27;369805.00;1.23;637.90;0.00;0.00;0.62;;;;;23.80;1.00;;;;;;2280361;61;941;-87
2022/09/13 06:26:02;509438.00;1.70;878.07;33375.00;0.11;58.42;;;;;23.30;1.00;;;;;;2280334;61;1274;-85
2022/09/13 06:28:29;371482.00;1.24;640.78;39443.00;0.13;68.92;;;;;23.40;1.00;;;;;;2280249;61;1070;-86
2022/09/13 06:31:04;109825.00;0.37;190.53;0.00;0.00;0.62;;;;;23.90;1.00;;;;;;2280288;61;1403;-86
2022/09/13 06:33:32;291511.00;0.97;503.33;34847.00;0.12;60.97;;;;;24.30;1.00;;;;;;2280204;61;1911;-86
2022/09/13 06:36:01;151130.00;0.50;261.75;0.00;0.00;0.62;;;;;24.30;1.00;;;;;;2280222;61;1728;-87
2022/09/13 06:43:32;1923565.00;6.41;3468.54;40726.00;0.14;71.14;;;;;24.50;1.00;;;;;;2273597;61;1340;-88
2022/09/13 06:53:37;1402337.00;4.67;2460.66;0.00;0.00;0.62;;;;;26.10;1.00;;;;;;2273685;61;1897;-89
2022/09/13 07:01:10;1953229.00;6.51;3528.73;2426.00;0.01;4.82;;;;;28.20;1.00;;;;;;1567869;40;3459;-86
2022/09/13 07:03:38;169113.00;0.56;292.74;0.00;0.00;0.62;;;;;28.60;1.00;;;;;;2276340;61;860;-87
2022/09/13 07:06:13;168970.00;0.56;292.49;0.00;0.00;0.62;;;;;28.90;1.00;;;;;;2276316;61;1131;-87
2022/09/13 07:08:40;134676.00;0.45;233.39;3633.00;0.01;6.92;;;;;29.30;1.00;;;;;;2276267;61;1494;-88
2022/09/13 07:11:08;148711.00;0.50;257.59;4531.00;0.02;8.47;;;;;29.30;1.00;;;;;;2276267;61;1398;-88
2022/09/13 07:13:35;255221.00;0.85;440.93;0.00;0.00;0.62;;;;;29.30;1.00;;;;;;2276266;61;1994;-89
2022/09/13 07:16:03;360840.00;1.20;622.49;0.00;0.00;0.62;;;;;29.70;1.00;;;;;;2276195;61;1170;-88
2022/09/13 07:18:32;509662.00;1.70;878.46;14833.00;0.05;26.32;;;;;30.00;1.00;;;;;;2276317;61;914;-89
2022/09/13 07:21:02;379004.00;1.26;653.71;370.00;0.00;1.26;;;;;30.20;1.00;;;;;;2276215;61;1414;-88
2022/09/13 07:23:29;556717.00;1.86;959.54;28191.00;0.09;49.45;;;;;30.40;1.00;;;;;;2276244;61;1487;-89
2022/09/13 07:26:00;930567.00;3.10;1609.87;44882.00;0.15;78.33;;;;;29.80;1.00;;;;;;2276182;61;1062;-88
2022/09/13 07:28:29;156107.00;0.52;270.33;0.00;0.00;0.62;;;;;30.40;1.00;;;;;;2276218;61;1101;-88
2022/09/13 07:30:58;530040.00;1.77;913.56;7385.00;0.02;13.42;;;;;29.90;1.00;;;;;;2276258;61;1319;-87
2022/09/13 07:33:25;618246.00;2.06;1065.74;75144.00;0.25;130.65;;;;;29.60;1.00;;;;;;2276157;61;2002;-88
2022/09/13 07:35:58;485429.00;1.62;836.74;13250.00;0.04;23.58;;;;;29.50;1.00;;;;;;2276217;61;1793;-88
2022/09/13 07:38:25;275771.00;0.92;476.27;0.00;0.00;0.62;;;;;29.20;1.00;;;;;;2276397;61;978;-89
2022/09/13 07:40:57;423723.00;1.41;730.59;6417.00;0.02;11.74;;;;;29.10;1.00;;;;;;2276959;61;1365;-88
2022/09/13 07:43:27;488582.00;1.63;842.17;0.00;0.00;0.62;;;;;29.50;1.00;;;;;;2279243;55;3798;-86
2022/09/13 07:48:29;1269495.00;4.23;2216.39;93517.00;0.31;162.38;;;;;29.70;1.00;;;;;;2329019;40;3512;-88
2022/09/13 07:51:00;1424209.00;4.75;2501.30;98998.00;0.33;171.84;;;;;30.30;1.00;;;;;;2280740;60;1282;-89
2022/09/13 08:06:35;1526467.00;5.09;2693.02;127996.00;0.43;221.87;;;;;29.60;1.00;;;;;;842703;56;3717;-89
2022/09/13 08:21:50;994487.00;3.31;1722.71;0.00;0.00;0.62;;;;;29.10;1.00;;;;;;2274368;61;1342;-89
2022/09/13 08:24:18;597940.00;1.99;1030.66;0.00;0.00;0.62;;;;;29.10;1.00;;;;;;2284804;40;3643;-87
2022/09/13 08:29:15;2220503.00;7.40;4087.36;57263.00;0.19;99.75;;;;;29.70;1.00;;;;;;2266304;61;1333;-87
2022/09/13 08:31:45;215250.00;0.72;372.17;0.00;0.00;0.62;;;;;30.30;1.00;;;;;;2264474;61;1687;-89
2022/09/13 08:34:16;206962.00;0.69;357.91;11048.00;0.04;19.76;;;;;30.40;1.00;;;;;;2264499;61;2173;-87
2022/09/13 08:36:44;53862.00;0.18;93.86;0.00;0.00;0.62;;;;;30.20;1.00;;;;;;2264498;61;1038;-86
2022/09/13 08:44:28;1742337.00;5.81;3107.98;48107.00;0.16;83.91;;;;;29.10;1.00;;;;;;2271101;61;1054;-92
2022/09/13 08:47:04;671920.00;2.24;1158.58;0.00;0.00;0.62;;;;;29.00;1.00;;;;;;2278429;55;3799;-88
2022/09/13 08:54:36;1875164.00;6.25;3371.07;165800.00;0.55;287.03;;;;;28.80;1.00;;;;;;1566198;56;3663;-89
2022/09/13 09:04:39;1904530.00;6.35;3430.10;90128.00;0.30;156.53;;;;;28.10;1.00;;;;;;2281673;55;3719;-90
2022/09/13 09:07:13;924603.00;3.08;1599.37;68211.00;0.23;118.67;;;;;28.10;1.00;;;;;;2296238;56;3787;-88
2022/09/13 09:09:45;1790765.00;5.97;3203.17;97879.00;0.33;169.91;;;;;28.20;1.00;;;;;;2281140;60;1710;-87
2022/09/13 09:14:52;2175562.00;7.25;3991.26;174549.00;0.58;302.10;;;;;28.30;1.00;;;;;;2301236;39;3418;-89
2022/09/13 09:27:31;1513068.00;5.04;2667.73;177825.00;0.59;307.74;;;;;28.50;1.00;;;;;;1500801;39;3213;-88
2022/09/13 09:29:58;815221.00;2.72;1407.68;61379.00;0.20;106.86;;;;;28.50;1.00;;;;;;2300878;55;3773;-88
2022/09/13 09:35:11;2048364.00;6.83;3724.11;117376.00;0.39;203.56;;;;;29.30;1.00;;;;;;2285016;40;3415;-89
2022/09/13 09:40:15;2390564.00;7.97;4459.56;84820.00;0.28;147.36;;;;;29.60;1.00;;;;;;2295736;40;3561;-88
2022/09/13 09:42:48;749520.00;2.50;1293.22;52806.00;0.18;92.04;;;;;29.50;1.00;;;;;;2299945;56;3749;-88
2022/09/13 09:47:47;1715666.00;5.72;3055.90;40191.00;0.13;70.22;;;;;28.80;1.00;;;;;;2278243;61;1380;-89
2022/09/13 10:07:43;1074324.00;3.58;1864.57;0.00;0.00;0.62;;;;;30.20;1.00;;;;;;2274123;61;1410;-88
2022/09/13 10:10:22;449558.00;1.50;775.02;0.00;0.00;0.62;;;;;30.50;1.00;;;;;;2272169;61;1405;-88
2022/09/13 10:12:52;565405.00;1.88;974.52;0.00;0.00;0.62;;;;;30.40;1.00;;;;;;2272202;61;1918;-87
2022/09/13 10:15:23;506177.00;1.69;872.46;0.00;0.00;0.62;;;;;30.40;1.00;;;;;;2272251;61;957;-88
2022/09/13 10:18:15;633637.00;2.11;1092.34;0.00;0.00;0.62;;;;;30.50;1.00;;;;;;2272055;61;1000;-85
2022/09/13 10:20:59;538122.00;1.79;927.49;42398.00;0.14;74.04;;;;;30.20;1.00;;;;;;2274422;55;3794;-87
2022/09/13 10:23:28;550378.00;1.83;948.61;0.00;0.00;0.62;;;;;30.50;1.00;;;;;;2276184;61;1115;-87
2022/09/13 10:26:03;241062.00;0.80;416.58;0.00;0.00;0.62;;;;;30.40;1.00;;;;;;2276132;61;1176;-89
2022/09/13 10:28:34;449007.00;1.50;774.07;801.00;0.00;2.01;;;;;30.80;1.00;;;;;;2276333;61;1155;-88
2022/09/13 10:31:06;629997.00;2.10;1086.04;37177.00;0.12;65.00;;;;;30.60;1.00;;;;;;2276083;61;1524;-89
2022/09/13 10:33:37;419129.00;1.40;722.69;0.00;0.00;0.62;;;;;30.50;1.00;;;;;;2276271;61;1996;-88
2022/09/13 10:36:11;581447.00;1.94;1002.20;61572.00;0.21;107.19;;;;;30.40;1.00;;;;;;2329999;40;3793;-87
2022/09/13 10:41:24;2137850.00;7.13;3911.33;0.00;0.00;0.62;;;;;30.60;1.00;;;;;;2270018;61;1434;-88
2022/09/13 10:43:57;641384.00;2.14;1105.73;50397.00;0.17;87.87;;;;;31.20;1.00;;;;;;2267840;61;1003;-87
2022/09/13 10:48:56;2394870.00;7.98;4469.16;681.00;0.00;1.80;;;;;30.60;1.00;;;;;;2273292;61;1412;-89
2022/09/13 10:54:18;1598419.00;5.33;2829.72;55262.00;0.18;96.29;;;;;30.40;1.00;;;;;;2282915;56;3691;-87
2022/09/13 10:56:49;395594.00;1.32;682.23;0.00;0.00;0.62;;;;;30.20;1.00;;;;;;2280102;60;1356;-87
2022/09/13 10:59:28;474054.00;1.58;817.17;0.00;0.00;0.62;;;;;30.10;1.00;;;;;;2279987;60;1605;-88
2022/09/13 11:02:31;876993.00;2.92;1515.75;0.00;0.00;0.62;;;;;30.10;1.00;;;;;;2287572;56;3732;-87
2022/09/13 11:05:17;919233.00;3.06;1589.93;45354.00;0.15;79.15;;;;;30.20;1.00;;;;;;2279181;60;1551;-88
2022/09/13 11:08:25;289402.00;0.96;499.70;0.00;0.00;0.62;;;;;30.00;1.00;;;;;;2280165;60;1782;-87
2022/09/13 11:11:05;427612.00;1.43;737.28;0.00;0.00;0.62;;;;;29.70;1.00;;;;;;2274996;60;1267;-85
2022/09/13 11:13:46;553872.00;1.85;954.63;0.00;0.00;0.62;;;;;29.60;1.00;;;;;;2280297;60;1923;-86
2022/09/13 11:16:29;283924.00;0.95;490.28;22615.00;0.08;39.80;;;;;29.50;1.00;;;;;;2280909;60;1014;-86
2022/09/13 11:19:23;679564.00;2.27;1171.82;0.00;0.00;0.62;;;;;29.90;1.00;;;;;;2280882;60;1083;-85
2022/09/13 11:22:12;433061.00;1.44;746.65;0.00;0.00;0.62;;;;;30.00;1.00;;;;;;2280831;60;1665;-85
2022/09/13 11:24:57;602386.00;2.01;1038.34;77954.00;0.26;135.50;;;;;30.20;1.00;;;;;;2280872;60;1035;-85
2022/09/13 11:27:36;409576.00;1.37;706.27;0.00;0.00;0.62;;;;;30.30;1.00;;;;;;2280876;60;1176;-86
2022/09/13 11:30:15;388825.00;1.30;670.59;0.00;0.00;0.62;;;;;30.70;1.00;;;;;;2280793;60;1505;-86
2022/09/13 11:33:24;624203.00;2.08;1076.03;0.00;0.00;0.62;;;;;30.00;1.00;;;;;;2280870;60;927;-87
2022/09/13 11:36:07;609174.00;2.03;1050.06;21217.00;0.07;37.38;;;;;30.20;1.00;;;;;;2280951;60;1011;-85
2022/09/13 11:38:41;597475.00;1.99;1029.86;53359.00;0.18;92.99;;;;;30.50;1.00;;;;;;2280934;60;1038;-89
2022/09/13 11:41:27;450858.00;1.50;777.26;0.00;0.00;0.62;;;;;30.90;1.00;;;;;;2280848;60;1502;-86
2022/09/13 11:44:18;360591.00;1.20;622.06;0.00;0.00;0.62;;;;;31.10;1.00;;;;;;2283521;39;3671;-85
2022/09/13 11:46:54;465247.00;1.55;802.01;0.00;0.00;0.62;;;;;31.30;1.00;;;;;;2280848;60;1410;-85
2022/09/13 11:49:43;496753.00;1.66;856.23;0.00;0.00;0.62;;;;;31.50;1.00;;;;;;2280720;60;1211;-86
2022/09/13 11:52:19;519450.00;1.73;895.32;39662.00;0.13;69.30;;;;;31.70;1.00;;;;;;2280943;60;1439;-86
2022/09/13 11:55:02;446417.00;1.49;769.62;0.00;0.00;0.62;;;;;31.60;1.00;;;;;;2280684;60;1978;-87
2022/09/13 11:57:33;332778.00;1.11;574.26;0.00;0.00;0.62;;;;;31.20;1.00;;;;;;2280521;60;1110;-87
2022/09/13 12:00:05;473941.00;1.58;816.97;0.00;0.00;0.62;;;;;31.50;1.00;;;;;;2280838;60;1443;-87
2022/09/13 12:02:42;755415.00;2.52;1303.47;108726.00;0.36;188.63;;;;;31.40;1.00;;;;;;2280724;60;957;-86